createdAt,value
2022-08-26T00:00:52.161Z,60.38
2022-08-26T00:03:20.918Z,60.54
2022-08-26T00:05:51.090Z,60.30
2022-08-26T00:08:22.804Z,60.22
2022-08-26T00:10:51.831Z,60.56
2022-08-26T00:13:20.364Z,60.60
2022-08-26T00:15:50.472Z,60.49
2022-08-26T00:18:22.261Z,60.30
2022-08-26T00:20:51.702Z,60.60
2022-08-26T00:23:24.056Z,60.31
2022-08-26T00:25:53.386Z,60.82
2022-08-26T00:28:23.117Z,60.55
2022-08-26T00:30:52.839Z,60.77
2022-08-26T00:33:22.326Z,61.06
2022-08-26T00:35:51.564Z,61.08
2022-08-26T00:38:22.945Z,61.23
2022-08-26T00:40:55.265Z,61.23
2022-08-26T00:43:25.884Z,61.73
2022-08-26T00:46:00.807Z,61.37
2022-08-26T00:48:34.089Z,61.43
2022-08-26T00:51:08.284Z,61.38
2022-08-26T00:53:47.421Z,61.71
2022-08-26T00:56:22.144Z,61.45
2022-08-26T00:58:52.704Z,61.85
2022-08-26T01:01:23.012Z,61.74
2022-08-26T01:03:51.753Z,62.14
2022-08-26T01:06:21.675Z,61.92
2022-08-26T01:08:52.468Z,62.00
2022-08-26T01:11:24.962Z,62.00
2022-08-26T01:13:56.103Z,62.01
2022-08-26T01:16:26.184Z,62.17
2022-08-26T01:18:58.445Z,62.22
2022-08-26T01:21:30.535Z,62.30
2022-08-26T01:24:01.570Z,62.55
2022-08-26T01:26:34.664Z,62.83
2022-08-26T01:29:07.103Z,62.66
2022-08-26T01:31:42.228Z,62.72
2022-08-26T01:34:18.162Z,62.46
2022-08-26T01:36:51.658Z,62.41
2022-08-26T01:39:22.191Z,62.07
2022-08-26T01:41:53.661Z,61.99
2022-08-26T01:44:27.622Z,61.67
2022-08-26T01:46:59.001Z,61.51
2022-08-26T01:49:29.084Z,61.47
2022-08-26T01:52:01.033Z,61.19
2022-08-26T01:54:30.980Z,61.02
2022-08-26T01:56:59.877Z,60.97
2022-08-26T01:59:29.081Z,60.86
2022-08-26T02:01:58.083Z,60.67
2022-08-26T02:04:30.689Z,60.43
2022-08-26T02:06:59.554Z,60.44
2022-08-26T02:09:28.062Z,60.37
2022-08-26T02:12:01.753Z,60.20
2022-08-26T02:14:34.693Z,60.22
2022-08-26T02:17:04.488Z,59.96
2022-08-26T02:19:38.861Z,59.74
2022-08-26T02:22:15.775Z,59.51
2022-08-26T02:24:51.560Z,59.33
2022-08-26T02:27:28.134Z,59.30
2022-08-26T02:30:04.971Z,59.03
2022-08-26T02:32:34.119Z,58.94
2022-08-26T02:35:03.827Z,58.69
2022-08-26T02:37:34.036Z,58.78
2022-08-26T02:40:03.428Z,58.44
2022-08-26T02:42:33.429Z,58.42
2022-08-26T02:45:02.181Z,58.24
2022-08-26T02:47:31.421Z,58.15
2022-08-26T02:50:02.055Z,58.03
2022-08-26T02:52:30.634Z,58.17
2022-08-26T02:55:00.872Z,57.90
2022-08-26T02:57:31.489Z,57.77
2022-08-26T03:00:02.127Z,57.79
2022-08-26T03:02:31.397Z,57.58
2022-08-26T03:05:02.024Z,57.61
2022-08-26T03:07:31.858Z,57.49
2022-08-26T03:10:01.029Z,57.52
2022-08-26T03:12:29.513Z,57.40
2022-08-26T03:14:58.765Z,57.37
2022-08-26T03:17:28.817Z,57.36
2022-08-26T03:19:57.492Z,57.34
2022-08-26T03:22:27.201Z,57.36
2022-08-26T03:24:56.386Z,57.45
2022-08-26T03:27:24.897Z,57.54
2022-08-26T03:30:11.778Z,57.71
2022-08-26T03:32:42.540Z,58.03
2022-08-26T03:35:12.311Z,57.93
2022-08-26T03:37:41.312Z,57.79
2022-08-26T03:40:11.750Z,58.03
2022-08-26T03:42:45.304Z,58.05
2022-08-26T03:45:15.509Z,58.03
2022-08-26T03:47:46.651Z,58.13
2022-08-26T03:50:22.591Z,58.17
2022-08-26T03:52:52.413Z,58.37
2022-08-26T03:55:23.754Z,58.27
2022-08-26T03:57:52.405Z,58.22
2022-08-26T04:00:21.990Z,58.34
2022-08-26T04:02:53.595Z,58.55
2022-08-26T04:05:23.862Z,58.54
2022-08-26T04:07:53.213Z,58.59
2022-08-26T04:10:28.626Z,58.95
2022-08-26T04:12:59.384Z,58.81
2022-08-26T04:15:28.703Z,59.10
2022-08-26T04:17:58.616Z,59.07
2022-08-26T04:20:27.463Z,59.21
2022-08-26T04:22:56.586Z,59.45
2022-08-26T04:25:25.644Z,59.53
2022-08-26T04:27:54.120Z,59.55
2022-08-26T04:30:22.735Z,59.69
2022-08-26T04:32:51.465Z,59.78
2022-08-26T04:35:25.788Z,59.95
2022-08-26T04:37:55.617Z,59.93
2022-08-26T04:40:24.664Z,59.82
2022-08-26T04:42:54.625Z,59.99
2022-08-26T04:45:23.261Z,59.92
2022-08-26T04:47:56.518Z,60.20
2022-08-26T04:50:27.233Z,60.37
2022-08-26T04:52:57.029Z,60.07
2022-08-26T04:55:39.765Z,60.45
2022-08-26T04:58:11.506Z,60.34
2022-08-26T05:00:40.608Z,60.67
2022-08-26T05:03:09.397Z,60.66
2022-08-26T05:05:42.663Z,60.73
2022-08-26T05:08:12.579Z,60.81
2022-08-26T05:10:42.392Z,60.66
2022-08-26T05:13:15.359Z,60.79
2022-08-26T05:15:45.365Z,60.63
2022-08-26T05:18:15.192Z,60.73
2022-08-26T05:20:47.918Z,61.11
2022-08-26T05:23:16.578Z,61.04
2022-08-26T05:25:49.315Z,61.04
2022-08-26T05:28:19.845Z,60.89
2022-08-26T05:30:48.730Z,61.12
2022-08-26T05:33:18.188Z,61.39
2022-08-26T05:35:48.774Z,61.35
2022-08-26T05:38:20.252Z,61.67
2022-08-26T05:40:52.576Z,61.46
2022-08-26T05:43:21.961Z,61.24
2022-08-26T05:45:52.006Z,61.31
2022-08-26T05:48:24.154Z,61.14
2022-08-26T05:50:54.957Z,60.95
2022-08-26T05:53:26.281Z,61.19
2022-08-26T05:55:56.227Z,61.27
2022-08-26T05:58:26.769Z,61.35
2022-08-26T06:01:00.685Z,61.33
2022-08-26T06:03:29.734Z,61.32
2022-08-26T06:05:59.582Z,60.96
2022-08-26T06:08:28.199Z,60.81
2022-08-26T06:11:01.438Z,60.68
2022-08-26T06:13:32.042Z,60.49
2022-08-26T06:16:02.016Z,60.53
2022-08-26T06:18:35.510Z,60.57
2022-08-26T06:21:15.230Z,60.38
2022-08-26T06:24:02.276Z,60.38
2022-08-26T06:26:31.836Z,60.08
2022-08-26T06:29:00.729Z,60.15
2022-08-26T06:31:34.508Z,60.21
2022-08-26T06:34:07.306Z,60.62
2022-08-26T06:36:43.922Z,60.58
2022-08-26T06:39:14.485Z,60.74
2022-08-26T06:41:43.875Z,60.80
2022-08-26T06:44:13.414Z,60.63
2022-08-26T06:46:43.002Z,60.24
2022-08-26T06:49:13.836Z,60.03
2022-08-26T06:51:47.244Z,59.95
2022-08-26T06:54:17.514Z,60.06
2022-08-26T06:56:45.949Z,60.08
2022-08-26T06:59:16.760Z,60.17
2022-08-26T07:01:46.834Z,60.10
2022-08-26T07:04:20.276Z,60.03
2022-08-26T07:06:54.186Z,60.03
2022-08-26T07:09:24.860Z,59.87
2022-08-26T07:11:55.589Z,59.59
2022-08-26T07:14:26.264Z,59.38
2022-08-26T07:16:55.667Z,59.11
2022-08-26T07:19:30.853Z,58.82
2022-08-26T07:22:04.158Z,58.70
2022-08-26T07:24:33.344Z,58.53
2022-08-26T07:27:05.847Z,58.26
2022-08-26T07:29:36.559Z,57.84
2022-08-26T07:32:06.025Z,57.70
2022-08-26T07:34:35.922Z,57.56
2022-08-26T07:37:08.878Z,57.53
2022-08-26T07:39:37.954Z,57.59
2022-08-26T07:42:10.796Z,57.42
2022-08-26T07:44:40.905Z,57.21
2022-08-26T07:47:24.951Z,57.00
2022-08-26T07:49:56.612Z,57.14
2022-08-26T07:52:29.897Z,56.89
2022-08-26T07:54:59.762Z,56.95
2022-08-26T07:57:29.275Z,57.14
2022-08-26T07:59:58.187Z,56.85
2022-08-26T08:02:28.994Z,56.96
2022-08-26T08:04:58.552Z,56.93
2022-08-26T08:07:45.040Z,56.66
2022-08-26T08:10:17.724Z,56.39
2022-08-26T08:12:47.249Z,56.48
2022-08-26T08:15:17.189Z,56.31
2022-08-26T08:17:45.736Z,56.35
2022-08-26T08:20:15.808Z,56.19
2022-08-26T08:22:46.418Z,56.40
2022-08-26T08:25:16.297Z,56.22
2022-08-26T08:27:47.139Z,56.05
2022-08-26T08:30:22.637Z,55.53
2022-08-26T08:32:51.725Z,55.27
2022-08-26T08:35:22.707Z,55.20
2022-08-26T08:37:54.921Z,55.20
2022-08-26T08:40:26.475Z,55.27
2022-08-26T08:43:00.344Z,54.80
2022-08-26T08:45:37.088Z,54.43
2022-08-26T08:48:08.143Z,54.74
2022-08-26T08:50:46.030Z,54.32
2022-08-26T08:53:19.322Z,54.20
2022-08-26T08:56:08.181Z,54.37
2022-08-26T08:58:51.981Z,54.01
2022-08-26T09:01:29.775Z,54.33
2022-08-26T09:04:17.223Z,53.34
2022-08-26T09:06:48.680Z,52.96
2022-08-26T09:09:25.989Z,52.79
2022-08-26T09:11:58.867Z,52.64
2022-08-26T09:14:28.447Z,51.97
2022-08-26T09:17:06.655Z,52.02
2022-08-26T09:19:44.152Z,52.02
2022-08-26T09:22:12.710Z,51.70
2022-08-26T09:24:48.216Z,51.57
2022-08-26T09:27:38.094Z,51.24
2022-08-26T09:30:08.385Z,51.37
2022-08-26T09:32:40.781Z,51.78
2022-08-26T09:35:12.348Z,51.86
2022-08-26T09:40:27.067Z,50.38
2022-08-26T09:43:22.434Z,50.07
2022-08-26T09:45:59.175Z,49.95
2022-08-26T09:48:31.265Z,49.71
2022-08-26T09:51:02.068Z,49.50
2022-08-26T09:53:34.530Z,49.27
2022-08-26T09:56:25.475Z,48.29
2022-08-26T09:58:57.130Z,48.74
2022-08-26T10:01:35.985Z,48.79
2022-08-26T10:04:08.164Z,48.28
2022-08-26T10:06:42.052Z,48.06
2022-08-26T10:09:15.162Z,47.76
2022-08-26T10:11:49.980Z,47.65
2022-08-26T10:14:24.536Z,47.72
2022-08-26T10:16:58.397Z,46.98
2022-08-26T10:19:43.118Z,47.05
2022-08-26T10:22:28.864Z,47.16
2022-08-26T10:25:02.764Z,46.91
2022-08-26T10:27:51.157Z,46.70
2022-08-26T10:30:24.783Z,46.04
2022-08-26T10:32:57.131Z,46.32
2022-08-26T10:35:27.548Z,46.40
2022-08-26T10:37:59.594Z,45.76
2022-08-26T10:40:32.404Z,45.32
2022-08-26T10:43:11.317Z,44.82
2022-08-26T10:45:45.363Z,43.88
2022-08-26T10:48:19.102Z,42.99
2022-08-26T10:50:50.277Z,43.21
2022-08-26T10:53:26.519Z,43.69
2022-08-26T10:56:04.725Z,43.39
2022-08-26T10:58:50.462Z,43.33
2022-08-26T11:01:46.984Z,43.27
2022-08-26T11:04:31.482Z,43.06
2022-08-26T11:07:39.309Z,43.00
2022-08-26T11:10:40.945Z,43.17
2022-08-26T11:13:10.172Z,42.95
2022-08-26T11:16:03.572Z,43.56
2022-08-26T11:18:44.822Z,43.56
2022-08-26T11:21:47.691Z,43.99
2022-08-26T11:25:02.461Z,44.21
2022-08-26T11:28:07.247Z,44.25
2022-08-26T11:30:57.478Z,44.23
2022-08-26T11:33:52.328Z,43.57
2022-08-26T11:36:58.442Z,44.12
2022-08-26T11:39:31.989Z,43.83
2022-08-26T11:42:21.016Z,43.90
2022-08-26T11:44:50.230Z,43.80
2022-08-26T11:47:29.312Z,44.00
2022-08-26T11:50:18.398Z,43.23
2022-08-26T11:52:55.412Z,43.37
2022-08-26T11:55:24.770Z,43.15
2022-08-26T11:57:57.362Z,42.82
2022-08-26T12:00:33.320Z,42.62
2022-08-26T12:03:06.443Z,42.14
2022-08-26T12:05:44.720Z,41.79
2022-08-26T12:08:16.495Z,41.62
2022-08-26T12:10:45.032Z,41.25
2022-08-26T12:13:23.783Z,40.65
2022-08-26T12:15:56.577Z,40.62
2022-08-26T12:18:29.555Z,40.06
2022-08-26T12:21:03.323Z,39.91
2022-08-26T12:23:43.261Z,40.25
2022-08-26T12:26:20.153Z,39.79
2022-08-26T12:28:51.963Z,40.14
2022-08-26T12:31:27.913Z,40.50
2022-08-26T12:33:59.329Z,40.86
2022-08-26T12:36:33.141Z,40.85
2022-08-26T12:39:10.557Z,39.80
2022-08-26T12:41:51.096Z,39.25
2022-08-26T12:44:53.621Z,39.67
2022-08-26T12:47:30.964Z,39.81
2022-08-26T12:50:17.709Z,39.81
2022-08-26T12:52:57.931Z,39.67
2022-08-26T12:55:35.542Z,39.67
2022-08-26T12:58:25.529Z,39.60
2022-08-26T13:00:56.229Z,39.85
2022-08-26T13:03:44.935Z,39.91
2022-08-26T13:06:29.870Z,40.00
2022-08-26T13:09:01.453Z,39.38
2022-08-26T13:11:32.041Z,39.51
2022-08-26T13:14:03.022Z,39.41
2022-08-26T13:16:36.713Z,39.17
2022-08-26T13:19:10.458Z,39.29
2022-08-26T13:21:45.285Z,39.42
2022-08-26T13:24:17.496Z,39.73
2022-08-26T13:26:47.637Z,40.32
2022-08-26T13:29:16.476Z,40.85
2022-08-26T13:31:46.894Z,41.17
2022-08-26T13:34:20.471Z,41.75
2022-08-26T13:36:49.832Z,42.25
2022-08-26T13:39:20.871Z,43.19
2022-08-26T13:41:50.229Z,45.19
2022-08-26T13:44:19.210Z,47.85
2022-08-26T13:46:47.693Z,48.94
2022-08-26T13:49:16.506Z,47.15
2022-08-26T13:51:45.241Z,47.20
2022-08-26T13:54:13.763Z,47.97
2022-08-26T13:56:43.814Z,48.83
2022-08-26T13:59:12.429Z,50.40
2022-08-26T14:01:41.452Z,50.98
2022-08-26T14:04:09.945Z,51.33
2022-08-26T14:06:38.580Z,52.42
2022-08-26T14:09:07.417Z,53.16
2022-08-26T14:11:54.042Z,53.47
2022-08-26T14:14:25.333Z,53.14
2022-08-26T14:16:59.154Z,52.95
2022-08-26T14:19:30.147Z,53.63
2022-08-26T14:22:01.005Z,53.79
2022-08-26T14:24:30.845Z,53.89
2022-08-26T14:27:00.050Z,53.92
2022-08-26T14:29:30.090Z,54.00
2022-08-26T14:31:59.856Z,54.51
2022-08-26T14:34:28.372Z,54.59
2022-08-26T14:36:56.800Z,54.92
2022-08-26T14:39:25.341Z,55.47
2022-08-26T14:41:57.729Z,55.81
2022-08-26T14:44:29.578Z,55.79
2022-08-26T14:47:02.381Z,55.50
2022-08-26T14:49:31.773Z,55.38
2022-08-26T14:52:00.744Z,55.56
2022-08-26T14:54:29.574Z,55.77
2022-08-26T14:57:01.160Z,55.76
2022-08-26T14:59:32.104Z,56.12
2022-08-26T15:02:02.399Z,56.46
2022-08-26T15:04:31.627Z,56.96
2022-08-26T15:07:01.631Z,57.26
2022-08-26T15:09:31.400Z,57.66
2022-08-26T15:12:00.113Z,57.77
2022-08-26T15:14:32.678Z,58.24
2022-08-26T15:17:02.934Z,58.43
2022-08-26T15:19:31.486Z,58.74
2022-08-26T15:22:00.540Z,59.13
2022-08-26T15:24:29.938Z,59.23
2022-08-26T15:26:58.738Z,59.48
2022-08-26T15:29:27.537Z,59.45
2022-08-26T15:31:57.603Z,59.45
2022-08-26T15:34:27.767Z,59.54
2022-08-26T15:36:56.576Z,59.64
2022-08-26T15:39:25.526Z,59.69
2022-08-26T15:41:56.248Z,59.57
2022-08-26T15:44:27.757Z,59.63
2022-08-26T15:46:58.802Z,59.60
2022-08-26T15:49:29.018Z,59.79
2022-08-26T15:51:58.253Z,59.57
2022-08-26T15:54:26.838Z,59.57
2022-08-26T15:56:55.369Z,59.50
2022-08-26T15:59:24.104Z,59.49
2022-08-26T16:01:52.790Z,59.65
2022-08-26T16:04:21.851Z,59.99
2022-08-26T16:06:52.363Z,60.13
2022-08-26T16:09:24.456Z,60.69
2022-08-26T16:11:53.208Z,61.07
2022-08-26T16:14:21.861Z,61.37
2022-08-26T16:16:50.726Z,61.83
2022-08-26T16:19:19.600Z,61.93
2022-08-26T16:21:48.461Z,62.23
2022-08-26T16:24:24.835Z,62.21
2022-08-26T16:26:54.691Z,62.10
2022-08-26T16:29:23.186Z,62.27
2022-08-26T16:31:53.436Z,62.58
2022-08-26T16:34:22.667Z,62.38
2022-08-26T16:36:51.152Z,62.09
2022-08-26T16:39:21.095Z,62.04
2022-08-26T16:41:49.478Z,62.11
2022-08-26T16:44:17.995Z,62.24
2022-08-26T16:46:46.946Z,62.43
2022-08-26T16:49:15.445Z,62.57
2022-08-26T16:51:43.984Z,62.58
2022-08-26T16:54:12.376Z,62.59
2022-08-26T16:56:42.627Z,62.50
2022-08-26T16:59:12.448Z,62.67
2022-08-26T17:01:41.030Z,63.34
2022-08-26T17:04:09.796Z,63.80
2022-08-26T17:06:38.650Z,64.07
2022-08-26T17:09:07.671Z,64.17
2022-08-26T17:11:36.682Z,64.18
2022-08-26T17:14:07.858Z,64.58
2022-08-26T17:16:36.741Z,64.45
2022-08-26T17:19:06.653Z,64.65
2022-08-26T17:21:37.265Z,64.76
2022-08-26T17:24:06.914Z,65.02
2022-08-26T17:26:36.092Z,64.85
2022-08-26T17:29:07.455Z,65.18
2022-08-26T17:31:35.984Z,65.01
2022-08-26T17:34:04.421Z,65.01
2022-08-26T17:36:33.461Z,65.00
2022-08-26T17:39:02.086Z,64.84
2022-08-26T17:41:30.642Z,64.67
2022-08-26T17:43:58.997Z,64.85
2022-08-26T17:46:29.377Z,64.86
2022-08-26T17:48:57.943Z,64.98
2022-08-26T17:51:26.975Z,65.12
2022-08-26T17:53:55.709Z,65.12
2022-08-26T17:56:26.763Z,64.96
2022-08-26T17:59:02.471Z,65.05
2022-08-26T18:01:34.217Z,65.15
2022-08-26T18:04:02.789Z,65.28
2022-08-26T18:06:31.947Z,65.11
2022-08-26T18:09:02.087Z,65.23
2022-08-26T18:11:33.677Z,64.95
2022-08-26T18:14:02.651Z,64.67
2022-08-26T18:16:32.229Z,64.86
2022-08-26T18:19:02.472Z,64.77
2022-08-26T18:21:31.361Z,64.95
2022-08-26T18:24:00.336Z,64.96
2022-08-26T18:26:30.694Z,64.97
2022-08-26T18:28:59.760Z,64.95
2022-08-26T18:31:28.545Z,64.62
2022-08-26T18:33:57.557Z,64.47
2022-08-26T18:36:30.256Z,64.56
2022-08-26T18:38:59.633Z,64.81
2022-08-26T18:41:32.173Z,65.11
2022-08-26T18:44:01.185Z,65.00
2022-08-26T18:46:29.897Z,65.16
2022-08-26T18:48:59.353Z,65.42
2022-08-26T18:51:31.080Z,65.49
2022-08-26T18:54:00.950Z,65.60
2022-08-26T18:56:29.916Z,65.63
2022-08-26T18:58:58.464Z,65.56
2022-08-26T19:01:27.878Z,65.95
2022-08-26T19:03:57.334Z,65.91
2022-08-26T19:06:27.392Z,65.90
2022-08-26T19:08:57.880Z,66.15
2022-08-26T19:11:32.637Z,66.22
2022-08-26T19:14:09.150Z,65.91
2022-08-26T19:16:38.989Z,65.97
2022-08-26T19:19:08.393Z,65.98
2022-08-26T19:21:38.629Z,65.85
2022-08-26T19:24:15.667Z,65.76
2022-08-26T19:26:45.361Z,65.61
2022-08-26T19:29:15.392Z,65.25
2022-08-26T19:31:44.615Z,65.11
2022-08-26T19:34:18.237Z,65.30
2022-08-26T19:36:49.572Z,65.45
2022-08-26T19:39:19.501Z,65.50
2022-08-26T19:41:48.683Z,65.60
2022-08-26T19:44:40.181Z,65.51
2022-08-26T19:47:10.173Z,65.32
2022-08-26T19:49:39.138Z,65.60
2022-08-26T19:52:07.917Z,65.73
2022-08-26T19:54:38.341Z,65.86
2022-08-26T19:57:08.082Z,65.89
2022-08-26T19:59:37.208Z,66.40
2022-08-26T20:02:10.881Z,66.27
2022-08-26T20:04:40.944Z,66.45
2022-08-26T20:07:12.912Z,66.62
2022-08-26T20:09:45.609Z,66.82
2022-08-26T20:12:16.122Z,67.01
2022-08-26T20:14:44.858Z,67.08
2022-08-26T20:17:13.401Z,67.08
2022-08-26T20:19:58.929Z,67.20
2022-08-26T20:22:28.326Z,67.45
2022-08-26T20:24:58.323Z,67.60
2022-08-26T20:27:34.707Z,67.60
2022-08-26T20:30:09.320Z,68.05
2022-08-26T20:32:38.890Z,67.83
2022-08-26T20:35:09.894Z,67.95
2022-08-26T20:37:39.973Z,68.02
2022-08-26T20:40:12.612Z,68.29
2022-08-26T20:42:41.308Z,68.32
2022-08-26T20:45:10.817Z,68.29
2022-08-26T20:47:39.421Z,68.56
2022-08-26T20:50:09.218Z,68.65
2022-08-26T20:52:37.706Z,68.61
2022-08-26T20:55:07.239Z,68.29
2022-08-26T20:57:37.522Z,68.21
2022-08-26T21:00:08.000Z,68.39
2022-08-26T21:02:37.155Z,68.52
2022-08-26T21:05:06.354Z,68.61
2022-08-26T21:07:35.000Z,68.61
2022-08-26T21:10:05.033Z,68.98
2022-08-26T21:12:33.441Z,69.11
2022-08-26T21:15:03.361Z,68.98
2022-08-26T21:17:31.837Z,68.68
2022-08-26T21:20:00.371Z,68.04
2022-08-26T21:22:30.262Z,67.46
2022-08-26T21:24:58.894Z,66.75
2022-08-26T21:27:27.849Z,66.82
2022-08-26T21:29:57.016Z,66.82
2022-08-26T21:32:27.986Z,67.03
2022-08-26T21:34:57.244Z,66.91
2022-08-26T21:37:27.484Z,66.92
2022-08-26T21:39:57.144Z,67.32
2022-08-26T21:42:26.700Z,67.47
2022-08-26T21:44:55.521Z,67.53
2022-08-26T21:47:24.789Z,67.70
2022-08-26T21:49:55.408Z,67.99
2022-08-26T21:52:23.866Z,68.17
2022-08-26T21:54:52.454Z,68.21
2022-08-26T21:57:20.971Z,68.27
2022-08-26T21:59:49.743Z,68.34
2022-08-26T22:02:18.267Z,68.13
2022-08-26T22:04:48.988Z,68.30
2022-08-26T22:07:21.765Z,68.24
2022-08-26T22:09:50.355Z,68.05
2022-08-26T22:12:19.558Z,68.10
2022-08-26T22:14:48.494Z,68.27
2022-08-26T22:17:17.162Z,68.08
2022-08-26T22:19:46.741Z,68.43
2022-08-26T22:22:15.833Z,68.04
2022-08-26T22:24:45.742Z,68.39
2022-08-26T22:27:15.189Z,68.45
2022-08-26T22:29:44.316Z,68.49
2022-08-26T22:32:12.905Z,68.37
2022-08-26T22:34:42.483Z,68.84
2022-08-26T22:37:10.956Z,68.83
2022-08-26T22:39:39.945Z,68.26
2022-08-26T22:42:09.872Z,68.30
2022-08-26T22:44:38.389Z,68.06
2022-08-26T22:47:07.748Z,68.14
2022-08-26T22:49:36.432Z,67.83
2022-08-26T22:52:05.337Z,68.21
2022-08-26T22:54:33.889Z,68.15
2022-08-26T22:57:02.511Z,68.27
2022-08-26T22:59:32.732Z,67.97
2022-08-26T23:02:01.189Z,68.04
2022-08-26T23:04:29.897Z,68.33
2022-08-26T23:06:58.501Z,67.96
2022-08-26T23:09:27.011Z,68.08
2022-08-26T23:11:56.764Z,68.14
2022-08-26T23:14:26.207Z,68.24
2022-08-26T23:16:56.193Z,68.22
2022-08-26T23:19:25.473Z,68.25
2022-08-26T23:21:54.064Z,68.35
2022-08-26T23:24:22.589Z,68.25
2022-08-26T23:26:51.490Z,68.63
2022-08-26T23:29:20.333Z,68.41
2022-08-26T23:31:48.899Z,68.51
2022-08-26T23:34:36.350Z,68.57
2022-08-26T23:37:06.757Z,68.56
2022-08-26T23:39:36.566Z,68.79
2022-08-26T23:42:07.054Z,68.89
2022-08-26T23:44:35.691Z,68.85
2022-08-26T23:47:05.081Z,68.55
2022-08-26T23:49:38.126Z,68.88
2022-08-26T23:52:24.382Z,68.80
2022-08-26T23:54:53.302Z,68.97
2022-08-26T23:57:24.759Z,69.07
2022-08-26T23:59:53.745Z,68.95
